National Weather Service United States Department of Commerce
 

KJFK Terminal Weather: (Wind Directions Are True, Except Where Noted, ADD 13 degrees for Magnetic)  

Latest Wind Data for KJFK
 Click for GRAPH of Ribbon Display   Click for TEXT of Ribbon Display and ASOS Winds

Latest KJFK METAR
METAR KJFK 230351Z 06007KT 10SM -RA SCT036 BKN090 OVC130 18/17 A3000 RMK
     AO2 RAB05 SLP157 P0003 T01780167

Latest KJFK TAFDecoded KJFK TAF (Click Image to Enlarge)
  KJFK 230246Z 2303/2406 10010KT P6SM VCSH SCT013 OVC120
     TEMPO 2303/2305 BKN013
     FM230500 08012KT P6SM VCSH BKN012 OVC030
     FM230800 08012KT 6SM -SHRA BR OVC009
     FM231300 10009KT 3SM -SHRA BR OVC009
     FM231900 13007KT 5SM -SHRA BR OVC015
     FM240100 15005KT 3SM -SHRA BR OVC010



 
JFK Hourly Forecast Temperature (Degrees C) - Time is Local !

KLGA Terminal Weather: (Wind Directions Are True, Except Where Noted, ADD 13 degrees for Magnetic)  

Latest Wind Data for KLGA
 Click for GRAPH of Ribbon Display   Click for TEXT of Ribbon Display and ASOS Winds

Latest KLGA METAR
METAR KLGA 230351Z 06007KT 6SM RA SCT038 BKN060 OVC120 18/14 A2999 RMK
     AO2 RAB0257 SLP157 P0004 T01830144

Latest KLGA TAFDecoded KLGA TAF (Click Image to Enlarge)
  KLGA 230246Z 2303/2406 09010KT P6SM VCSH FEW015 OVC150
      TEMPO 2303/2306 BKN020
     FM230600 06012KT P6SM VCSH BKN010 OVC030
     FM230800 06012KT 6SM -SHRA BR OVC010
     FM231400 06010KT 3SM -SHRA BR OVC010
     FM231900 05009KT 5SM -SHRA BR OVC018
     FM240100 03005KT 3SM -SHRA BR OVC012





 

 

LGA Hourly Forecast Temperature (Degrees C) - Time is Local !

KEWR Terminal Weather: (Wind Directions Are True, Except Where Noted, ADD 13 degrees for Magnetic)  

Latest Wind Data for KEWR
 Click for GRAPH of Ribbon Display   Click for TEXT of Ribbon Display and ASOS Winds

Latest KEWR METAR
METAR KEWR 230351Z 08006KT 5SM -RA BR FEW007 SCT036 OVC065 18/17 A2998
     RMK SLP152 P0013 T01780167

Latest KEWR TAFDecoded KEWR TAF (Click Image to Enlarge)
  KEWR 230246Z 2303/2406 10007KT P6SM VCSH FEW015 OVC120
      TEMPO 2303/2304 BKN015
     FM230400 06008KT P6SM VCSH BKN015 OVC025
     FM230600 06008KT 6SM -SHRA BR OVC009
     FM230800 05010KT 2SM -SHRA BR OVC008
     FM231800 06005KT 5SM -SHRA BR OVC019
     FM240100 VRB04KT 3SM -SHRA BR OVC010


EWR Hourly Forecast Temperature (Degrees C) - Time is Local ! 
 

Afternoon EWR Haze Potential Forecast: 

KTEB Terminal Weather: (Wind Directions Are True, Except Where Noted, ADD 13 degrees for Magnetic)
Latest KTEB METAR
METAR KTEB 222251Z 11008G16KT 10SM CLR 23/13 A2998 RMK AO2 SLP153
     T02330133 $

Latest KTEB TAFDecoded KTEB TAF (Click Image to Enlarge)
  KTEB 230246Z 2303/2406 10006KT P6SM VCSH FEW018 SCT090 OVC150
      TEMPO 2303/2306 BKN018
     FM230600 07008KT P6SM VCSH BKN015 OVC020
     FM230800 06008KT 6SM -SHRA OVC015
     FM231100 07007KT 4SM -SHRA BR OVC009
     FM231900 VRB05KT 5SM -SHRA BR OVC015
     FM240100 VRB03KT 4SM -SHRA BR OVC010






 

 

KHPN Terminal Weather: (Wind Directions Are True, Except Where Noted, ADD 13 degrees for Magnetic)
Latest KHPN METAR
METAR KHPN 230356Z 09006KT 10SM -RA FEW045 BKN100 17/15 A3001 RMK AO2
     RAB49 SLP159 P0000 T01670150

Latest KHPN TAFDecoded KHPN TAF (Click Image to Enlarge)
  KHPN 230246Z 2303/2324 11005KT P6SM VCSH FEW012 SCT100 OVC140
     FM230400 08007KT P6SM VCSH SCT012 OVC040
      TEMPO 2305/2309 BKN012
     FM230900 09008KT 4SM -SHRA BR SCT008 OVC012
     FM231500 08005KT 2SM -SHRA BR OVC008 AMD NOT SKED






 
KISP Terminal Weather: (Wind Directions Are True, Except Where Noted, ADD 13 degrees for Magnetic)
Latest KISP METAR
METAR KISP 230356Z 05005KT 10SM OVC038 18/13 A3000 RMK RAB31E48 SLP158
     LAST P0000 T01780133

Latest KISP TAFDecoded KISP TAF (Click Image to Enlarge)
  KISP 230246Z 2303/2324 08007KT P6SM VCSH SCT013 OVC120
      TEMPO 2303/2307 BKN013
     FM230700 09011KT P6SM VCSH OVC013
     FM231000 10011KT 5SM -SHRA BR OVC008
     FM231800 12009KT 3SM -SHRA BR OVC006
     FM232100 15007KT 2SM -SHRA BR OVC010






 

ZNY SWAP Season Information:

N90 AirSpace Impacts

******  PIREPS  ******


ZNY DAY 1 SWAP Outlook

ZNY Day 1 SWAP Outlook

ZNY DAY 2 SWAP Outlook

ZNY Day 2 SWAP Outlook

N90 Thunderstorm Gate Forecast

N90 Thunderstorm Gate Forecast

Northeast Corridor Intl Departure Gate Forecast

NE Corridor - International Gate Forecast

 

ZNY DAY 3 SWAP Outlook

Day 3 SWAP Outlook Image

Surface Weather Map

Surface Weather map

TCM Convective Forecast (TCF) (Mar-Oct)


Vertical Wind Profile

RED LINE is the "Highest" Freezing Level - Lower Freezing Levels Can Exist.